createdAt,value
2022-09-07T00:00:39.310Z,7.90
2022-09-07T00:03:08.025Z,7.90
2022-09-07T00:05:41.317Z,7.90
2022-09-07T00:08:08.465Z,7.90
2022-09-07T00:10:35.518Z,8.00
2022-09-07T00:13:02.838Z,8.10
2022-09-07T00:15:30.470Z,8.20
2022-09-07T00:17:57.549Z,8.40
2022-09-07T00:20:24.546Z,8.60
2022-09-07T00:22:51.791Z,8.80
2022-09-07T00:25:18.766Z,9.00
2022-09-07T00:27:45.720Z,8.00
2022-09-07T00:30:12.999Z,9.10
2022-09-07T00:32:40.076Z,9.10
2022-09-07T00:35:07.331Z,9.10
2022-09-07T00:37:34.766Z,9.10
2022-09-07T00:40:02.289Z,9.10
2022-09-07T00:42:29.283Z,9.20
2022-09-07T00:45:16.482Z,9.20
2022-09-07T00:47:59.388Z,9.20
2022-09-07T00:50:30.920Z,9.10
2022-09-07T00:53:05.557Z,9.10
2022-09-07T00:55:33.998Z,9.10
2022-09-07T00:58:01.490Z,9.10
2022-09-07T01:00:28.451Z,9.10
2022-09-07T01:02:58.135Z,9.00
2022-09-07T01:05:37.010Z,9.00
2022-09-07T01:08:05.534Z,8.90
2022-09-07T01:10:32.626Z,8.80
2022-09-07T01:13:00.730Z,8.80
2022-09-07T01:15:43.243Z,8.80
2022-09-07T01:18:47.054Z,8.80
2022-09-07T01:21:35.846Z,8.70
2022-09-07T01:24:38.150Z,8.70
2022-09-07T01:27:44.326Z,8.60
2022-09-07T01:30:23.197Z,8.60
2022-09-07T01:33:12.400Z,8.60
2022-09-07T01:36:10.661Z,8.60
2022-09-07T01:38:53.215Z,8.70
2022-09-07T01:41:35.302Z,8.70
2022-09-07T01:44:10.669Z,8.60
2022-09-07T01:46:45.306Z,8.70
2022-09-07T01:49:21.137Z,8.60
2022-09-07T01:51:53.109Z,8.60
2022-09-07T01:54:25.612Z,8.60
2022-09-07T01:57:00.091Z,8.50
2022-09-07T01:59:31.997Z,8.40
2022-09-07T02:02:09.081Z,8.20
2022-09-07T02:05:02.412Z,8.10
2022-09-07T02:07:36.698Z,8.00
2022-09-07T02:10:11.572Z,7.80
2022-09-07T02:12:48.222Z,7.80
2022-09-07T02:15:25.117Z,7.70
2022-09-07T02:17:57.511Z,7.70
2022-09-07T02:20:31.399Z,7.60
2022-09-07T02:23:02.291Z,7.50
2022-09-07T02:25:37.825Z,7.40
2022-09-07T02:28:10.007Z,7.30
2022-09-07T02:30:37.511Z,7.30
2022-09-07T02:33:04.970Z,7.20
2022-09-07T02:35:32.843Z,7.10
2022-09-07T02:38:04.368Z,7.10
2022-09-07T02:40:32.144Z,7.00
2022-09-07T02:43:02.462Z,7.00
2022-09-07T02:46:11.231Z,6.90
2022-09-07T02:49:19.333Z,6.90
2022-09-07T02:52:07.635Z,6.80
2022-09-07T02:54:40.349Z,6.80
2022-09-07T02:57:28.824Z,6.80
2022-09-07T03:00:11.710Z,6.70
2022-09-07T03:02:45.061Z,6.70
2022-09-07T03:05:16.557Z,6.70
2022-09-07T03:08:01.367Z,6.70
2022-09-07T03:10:29.037Z,6.60
2022-09-07T03:12:56.478Z,6.60
2022-09-07T03:15:26.821Z,6.50
2022-09-07T03:17:54.289Z,6.50
2022-09-07T03:20:23.011Z,6.40
2022-09-07T03:22:51.735Z,6.40
2022-09-07T03:25:19.811Z,6.30
2022-09-07T03:27:47.092Z,6.30
2022-09-07T03:30:14.607Z,6.30
2022-09-07T03:32:41.545Z,6.30
2022-09-07T03:35:09.334Z,6.30
2022-09-07T03:37:37.705Z,6.30
2022-09-07T03:40:07.367Z,6.20
2022-09-07T03:42:34.833Z,8.00
2022-09-07T03:45:01.982Z,6.10
2022-09-07T03:47:28.870Z,6.10
2022-09-07T03:49:56.010Z,6.10
2022-09-07T03:52:22.914Z,6.10
2022-09-07T03:54:49.844Z,6.10
2022-09-07T03:57:17.134Z,6.10
2022-09-07T03:59:44.022Z,6.10
2022-09-07T04:02:11.043Z,6.10
2022-09-07T04:04:38.215Z,6.10
2022-09-07T04:07:06.577Z,6.10
2022-09-07T04:09:33.558Z,6.10
2022-09-07T04:12:00.812Z,6.10
2022-09-07T04:14:27.974Z,6.10
2022-09-07T04:16:55.004Z,6.10
2022-09-07T04:19:22.388Z,6.10
2022-09-07T04:21:49.744Z,6.10
2022-09-07T04:24:18.047Z,6.10
2022-09-07T04:26:48.739Z,6.10
2022-09-07T04:29:15.650Z,6.20
2022-09-07T04:31:42.567Z,6.20
2022-09-07T04:34:11.966Z,6.30
2022-09-07T04:36:38.903Z,6.40
2022-09-07T04:39:05.952Z,6.50
2022-09-07T04:41:35.006Z,6.50
2022-09-07T04:44:03.998Z,6.50
2022-09-07T04:46:33.925Z,6.60
2022-09-07T04:49:04.197Z,6.60
2022-09-07T04:51:33.406Z,6.70
2022-09-07T04:54:02.109Z,6.90
2022-09-07T04:56:30.280Z,7.10
2022-09-07T04:58:57.576Z,7.40
2022-09-07T05:01:25.843Z,7.70
2022-09-07T05:03:53.396Z,8.00
2022-09-07T05:06:21.834Z,8.30
2022-09-07T05:08:51.961Z,8.40
2022-09-07T05:11:24.944Z,8.40
2022-09-07T05:13:56.876Z,8.30
2022-09-07T05:16:25.135Z,8.20
2022-09-07T05:19:01.332Z,8.20
2022-09-07T05:21:34.127Z,8.10
2022-09-07T05:24:02.220Z,8.20
2022-09-07T05:26:33.035Z,8.20
2022-09-07T05:31:51.554Z,8.50
2022-09-07T05:34:33.980Z,8.80
2022-09-07T05:37:01.912Z,9.10
2022-09-07T05:39:29.426Z,9.50
2022-09-07T05:41:56.742Z,9.80
2022-09-07T05:47:11.620Z,10.70
2022-09-07T05:49:39.043Z,11.60
2022-09-07T05:52:06.051Z,12.50
2022-09-07T05:54:33.005Z,13.00
2022-09-07T05:57:00.123Z,13.50
2022-09-07T05:59:27.028Z,13.90
2022-09-07T06:01:54.139Z,14.60
2022-09-07T06:04:21.480Z,15.10
2022-09-07T06:07:17.736Z,15.70
2022-09-07T06:09:35.734Z,16.40
2022-09-07T06:12:05.463Z,16.70
2022-09-07T06:14:33.511Z,16.90
2022-09-07T06:17:00.961Z,17.10
2022-09-07T06:19:27.923Z,17.60
2022-09-07T06:21:57.492Z,18.30
2022-09-07T06:24:24.639Z,18.60
2022-09-07T06:26:51.577Z,18.80
2022-09-07T06:29:18.468Z,19.10
2022-09-07T06:34:32.526Z,20.50
2022-09-07T06:36:59.729Z,20.00
2022-09-07T06:39:26.656Z,19.80
2022-09-07T06:42:00.978Z,20.70
2022-09-07T06:44:28.511Z,21.00
2022-09-07T06:47:02.927Z,21.50
2022-09-07T06:49:30.703Z,22.10
2022-09-07T06:51:57.665Z,22.00
2022-09-07T06:57:11.707Z,23.00
2022-09-07T06:59:39.062Z,24.00
2022-09-07T07:02:07.121Z,24.90
2022-09-07T07:04:40.200Z,24.80
2022-09-07T07:07:12.637Z,24.90
2022-09-07T07:09:40.213Z,25.10
2022-09-07T07:12:07.558Z,25.30
2022-09-07T07:14:38.449Z,24.70
2022-09-07T07:17:07.364Z,24.40
2022-09-07T07:19:34.375Z,24.70
2022-09-07T07:22:14.260Z,24.70
2022-09-07T07:24:48.395Z,24.60
2022-09-07T07:27:16.681Z,25.30
2022-09-07T07:29:43.779Z,25.40
2022-09-07T07:32:11.157Z,25.60
2022-09-07T07:34:38.102Z,25.80
2022-09-07T07:37:05.290Z,25.30
2022-09-07T07:42:21.154Z,25.20
2022-09-07T07:44:48.855Z,26.00
2022-09-07T07:47:15.831Z,25.80
2022-09-07T07:49:42.765Z,25.30
2022-09-07T07:54:56.735Z,25.30
2022-09-07T07:57:23.849Z,25.50
2022-09-07T07:59:51.051Z,25.40
2022-09-07T08:02:18.133Z,25.70
2022-09-07T08:04:45.322Z,25.50
2022-09-07T08:07:12.632Z,25.10
2022-09-07T08:09:42.656Z,25.80
2022-09-07T08:12:13.069Z,27.10
2022-09-07T08:14:41.486Z,27.50
2022-09-07T08:17:14.646Z,28.00
2022-09-07T08:19:42.667Z,28.80
2022-09-07T08:22:10.863Z,28.50
2022-09-07T08:24:37.771Z,29.00
2022-09-07T08:27:05.051Z,30.00
2022-09-07T08:29:34.604Z,30.10
2022-09-07T08:32:06.859Z,30.00
2022-09-07T08:34:36.222Z,28.90
2022-09-07T08:37:03.802Z,28.20
2022-09-07T08:39:31.112Z,27.80
2022-09-07T08:42:05.100Z,27.90
2022-09-07T08:44:33.270Z,28.20
2022-09-07T08:47:14.975Z,28.20
2022-09-07T08:49:50.945Z,28.40
2022-09-07T08:52:36.946Z,29.60
2022-09-07T08:55:28.132Z,31.30
2022-09-07T08:58:32.576Z,31.30
2022-09-07T09:04:18.428Z,29.80
2022-09-07T09:07:03.209Z,30.00
2022-09-07T09:10:25.102Z,29.90
2022-09-07T09:13:03.548Z,30.20
2022-09-07T09:16:00.505Z,29.90
2022-09-07T09:18:46.298Z,30.00
2022-09-07T09:21:16.205Z,29.30
2022-09-07T09:23:46.776Z,29.60
2022-09-07T09:26:28.358Z,30.40
2022-09-07T09:28:56.094Z,30.50
2022-09-07T09:31:28.192Z,30.10
2022-09-07T09:34:07.136Z,30.40
2022-09-07T09:36:55.600Z,30.90
2022-09-07T09:40:00.601Z,32.00
2022-09-07T09:42:34.434Z,31.80
2022-09-07T09:45:12.213Z,32.90
2022-09-07T09:47:39.848Z,32.40
2022-09-07T09:53:40.776Z,32.00
2022-09-07T09:56:08.080Z,29.80
2022-09-07T10:01:33.588Z,24.30
2022-09-07T10:04:24.729Z,22.10
2022-09-07T10:06:54.735Z,20.80
2022-09-07T10:09:38.295Z,20.10
2022-09-07T10:12:07.743Z,19.80
2022-09-07T10:14:44.871Z,19.50
2022-09-07T10:17:13.000Z,19.40
2022-09-07T10:19:42.755Z,19.30
2022-09-07T10:22:24.677Z,19.20
2022-09-07T10:24:52.210Z,19.20
2022-09-07T10:27:40.791Z,19.30
2022-09-07T10:30:16.118Z,19.40
2022-09-07T10:33:17.698Z,19.30
2022-09-07T10:35:57.256Z,19.20
2022-09-07T10:38:25.965Z,19.10
2022-09-07T10:41:04.295Z,19.20
2022-09-07T10:43:44.298Z,19.10
2022-09-07T10:49:15.838Z,19.20
2022-09-07T10:52:09.094Z,19.30
2022-09-07T10:55:02.100Z,19.40
2022-09-07T10:57:32.207Z,19.60
2022-09-07T11:00:14.477Z,19.60
2022-09-07T11:05:56.079Z,19.60
2022-09-07T11:12:01.370Z,19.80
2022-09-07T11:14:35.290Z,19.90
2022-09-07T11:17:04.082Z,20.00
2022-09-07T11:19:47.004Z,20.10
2022-09-07T11:22:33.189Z,20.20
2022-09-07T11:25:30.608Z,20.30
2022-09-07T11:28:02.788Z,20.40
2022-09-07T11:30:34.342Z,20.50
2022-09-07T11:33:20.004Z,20.40
2022-09-07T11:36:01.006Z,20.20
2022-09-07T11:38:34.368Z,20.00
2022-09-07T11:41:26.045Z,20.10
2022-09-07T11:44:06.589Z,20.20
2022-09-07T11:46:55.854Z,20.30
2022-09-07T11:49:26.022Z,20.30
2022-09-07T11:52:21.349Z,20.30
2022-09-07T11:54:58.379Z,20.30
2022-09-07T11:57:44.381Z,20.40
2022-09-07T12:00:19.187Z,20.40
2022-09-07T12:02:59.351Z,20.50
2022-09-07T12:06:05.285Z,20.50
2022-09-07T12:09:11.914Z,20.50
2022-09-07T12:11:54.073Z,20.60
2022-09-07T12:14:48.367Z,20.60
2022-09-07T12:17:39.880Z,20.60
2022-09-07T12:20:15.175Z,20.40
2022-09-07T12:23:05.428Z,20.40
2022-09-07T12:25:34.763Z,20.50
2022-09-07T12:28:02.216Z,20.50
2022-09-07T12:30:30.654Z,20.60
2022-09-07T12:33:04.576Z,20.50
2022-09-07T12:35:39.025Z,20.50
2022-09-07T12:38:18.195Z,20.40
2022-09-07T12:41:02.499Z,20.30
2022-09-07T12:43:46.769Z,20.30
2022-09-07T12:46:34.605Z,20.20
2022-09-07T12:49:48.138Z,20.10
2022-09-07T12:52:47.859Z,20.00
2022-09-07T12:58:51.417Z,20.00
2022-09-07T13:01:35.846Z,20.00
2022-09-07T13:04:15.672Z,20.10
2022-09-07T13:07:24.032Z,20.20
2022-09-07T13:09:59.704Z,20.20
2022-09-07T13:12:55.316Z,20.00
2022-09-07T13:15:42.839Z,19.90
2022-09-07T13:18:31.469Z,19.90
2022-09-07T13:21:08.037Z,19.90
2022-09-07T13:23:38.863Z,19.90
2022-09-07T13:26:09.665Z,19.90
2022-09-07T13:28:48.818Z,19.90
2022-09-07T13:31:34.449Z,19.80
2022-09-07T13:34:21.300Z,19.80
2022-09-07T13:36:48.919Z,19.90
2022-09-07T13:39:20.262Z,19.90
2022-09-07T13:41:52.277Z,19.80
2022-09-07T13:44:26.265Z,19.80
2022-09-07T13:47:06.189Z,19.70
2022-09-07T13:50:05.255Z,19.70
2022-09-07T13:53:05.037Z,19.70
2022-09-07T13:55:37.017Z,19.60
2022-09-07T13:58:06.718Z,19.60
2022-09-07T14:00:34.499Z,19.50
2022-09-07T14:03:07.143Z,19.60
2022-09-07T14:05:36.254Z,19.60
2022-09-07T14:08:03.432Z,19.60
2022-09-07T14:10:30.346Z,19.50
2022-09-07T14:13:12.565Z,19.50
2022-09-07T14:15:47.357Z,19.50
2022-09-07T14:18:22.310Z,19.50
2022-09-07T14:20:52.773Z,19.50
2022-09-07T14:23:29.772Z,19.40
2022-09-07T14:26:17.743Z,19.40
2022-09-07T14:28:47.633Z,19.40
2022-09-07T14:31:17.686Z,19.40
2022-09-07T14:33:56.962Z,19.30
2022-09-07T14:36:45.287Z,19.40
2022-09-07T14:39:17.708Z,19.30
2022-09-07T14:41:45.402Z,19.30
2022-09-07T14:44:38.672Z,19.30
2022-09-07T14:47:18.839Z,19.30
2022-09-07T14:49:52.127Z,19.20
2022-09-07T14:52:28.511Z,19.10
2022-09-07T14:54:55.434Z,19.10
2022-09-07T14:57:30.423Z,19.10
2022-09-07T15:00:17.815Z,19.20
2022-09-07T15:02:44.978Z,19.20
2022-09-07T15:05:20.371Z,19.20
2022-09-07T15:07:51.027Z,19.20
2022-09-07T15:10:20.944Z,19.20
2022-09-07T15:12:50.493Z,19.20
2022-09-07T15:15:26.212Z,19.30
2022-09-07T15:18:05.825Z,19.30
2022-09-07T15:20:39.904Z,19.30
2022-09-07T15:23:13.120Z,19.30
2022-09-07T15:25:44.362Z,19.20
2022-09-07T15:34:11.434Z,19.20
2022-09-07T15:36:40.909Z,19.20
2022-09-07T15:39:17.462Z,19.10
2022-09-07T15:41:46.112Z,19.10
2022-09-07T15:44:15.071Z,19.10
2022-09-07T15:47:42.067Z,19.00
2022-09-07T15:49:30.742Z,19.00
2022-09-07T15:52:05.582Z,18.90
2022-09-07T15:54:35.222Z,18.90
2022-09-07T15:59:51.387Z,18.80
2022-09-07T16:05:07.127Z,18.70
2022-09-07T16:10:21.851Z,18.60
2022-09-07T16:13:10.915Z,18.50
2022-09-07T16:15:45.076Z,18.50
2022-09-07T16:18:16.605Z,18.40
2022-09-07T16:20:44.611Z,18.30
2022-09-07T16:23:14.566Z,18.20
2022-09-07T16:25:43.316Z,18.10
2022-09-07T16:28:11.020Z,18.00
2022-09-07T16:30:41.274Z,17.90
2022-09-07T16:33:08.502Z,17.80
2022-09-07T16:35:35.947Z,17.80
2022-09-07T16:40:51.135Z,17.60
2022-09-07T16:43:18.134Z,17.40
2022-09-07T16:48:35.198Z,17.20
2022-09-07T16:51:03.714Z,17.00
2022-09-07T16:53:32.694Z,17.00
2022-09-07T16:56:12.292Z,16.80
2022-09-07T16:58:41.380Z,16.70
2022-09-07T17:01:10.788Z,16.60
2022-09-07T17:03:38.522Z,16.50
2022-09-07T17:06:07.690Z,16.50
2022-09-07T17:08:36.464Z,16.40
2022-09-07T17:11:17.163Z,16.40
2022-09-07T17:13:45.669Z,16.30
2022-09-07T17:16:14.058Z,16.30
2022-09-07T17:21:34.170Z,16.10
2022-09-07T17:24:04.340Z,15.90
2022-09-07T17:26:32.332Z,15.80
2022-09-07T17:29:00.913Z,15.80
2022-09-07T17:34:18.513Z,15.60
2022-09-07T17:36:45.369Z,15.40
2022-09-07T17:39:17.132Z,15.40
2022-09-07T17:41:45.340Z,15.20
2022-09-07T17:44:12.745Z,15.20
2022-09-07T17:46:39.843Z,15.10
2022-09-07T17:49:09.590Z,14.90
2022-09-07T17:51:36.579Z,14.80
2022-09-07T17:54:13.159Z,14.70
2022-09-07T17:56:41.777Z,14.60
2022-09-07T18:01:57.214Z,14.40
2022-09-07T18:04:24.679Z,14.40
2022-09-07T18:06:52.923Z,14.30
2022-09-07T18:09:20.343Z,14.20
2022-09-07T18:11:49.183Z,14.10
2022-09-07T18:14:17.230Z,14.00
2022-09-07T18:16:45.732Z,14.00
2022-09-07T18:19:13.216Z,13.90
2022-09-07T18:21:42.610Z,13.90
2022-09-07T18:24:19.044Z,13.80
2022-09-07T18:26:51.590Z,13.70
2022-09-07T18:29:29.994Z,13.70
2022-09-07T18:31:59.117Z,13.90
2022-09-07T18:34:28.652Z,13.60
2022-09-07T18:36:55.931Z,13.60
2022-09-07T18:39:23.200Z,13.50
2022-09-07T18:41:50.302Z,13.50
2022-09-07T18:47:06.333Z,13.40
2022-09-07T18:49:33.212Z,12.20
2022-09-07T18:54:48.368Z,13.30
2022-09-07T18:57:15.869Z,13.20
2022-09-07T18:59:42.737Z,13.10
2022-09-07T19:02:10.806Z,13.10
2022-09-07T19:07:29.595Z,12.90
2022-09-07T19:09:56.983Z,12.90
2022-09-07T19:12:25.022Z,12.80
2022-09-07T19:14:52.463Z,12.80
2022-09-07T19:17:19.800Z,12.70
2022-09-07T19:19:48.363Z,12.70
2022-09-07T19:22:15.671Z,12.60
2022-09-07T19:24:42.640Z,12.60
2022-09-07T19:27:09.490Z,12.60
2022-09-07T19:29:36.639Z,12.50
2022-09-07T19:32:07.636Z,12.50
2022-09-07T19:34:36.782Z,12.40
2022-09-07T19:37:06.111Z,12.30
2022-09-07T19:39:33.188Z,12.30
2022-09-07T19:42:00.600Z,12.30
2022-09-07T19:44:28.010Z,12.20
2022-09-07T19:46:55.339Z,12.40
2022-09-07T19:49:22.637Z,12.20
2022-09-07T19:51:51.928Z,12.20
2022-09-07T19:54:19.312Z,12.10
2022-09-07T19:56:46.284Z,12.10
2022-09-07T19:59:14.447Z,12.00
2022-09-07T20:01:46.073Z,12.00
2022-09-07T20:04:20.346Z,11.90
2022-09-07T20:06:50.251Z,11.90
2022-09-07T20:09:18.797Z,11.80
2022-09-07T20:11:47.558Z,11.80
2022-09-07T20:14:16.097Z,11.80
2022-09-07T20:16:43.513Z,11.80
2022-09-07T20:19:13.638Z,11.70
2022-09-07T20:21:40.812Z,11.70
2022-09-07T20:24:07.778Z,11.70
2022-09-07T20:26:34.708Z,11.60
2022-09-07T20:29:23.721Z,11.60
2022-09-07T20:31:48.741Z,11.60
2022-09-07T20:34:15.928Z,11.60
2022-09-07T20:36:42.865Z,11.60
2022-09-07T20:39:15.613Z,11.50
2022-09-07T20:41:42.862Z,11.40
2022-09-07T20:44:10.109Z,11.40
2022-09-07T20:46:37.136Z,11.40
2022-09-07T20:49:05.250Z,11.40
2022-09-07T20:51:32.505Z,11.40
2022-09-07T20:53:59.505Z,11.40
2022-09-07T20:56:28.593Z,11.40
2022-09-07T20:59:00.479Z,11.30
2022-09-07T21:01:29.142Z,11.40
2022-09-07T21:03:58.075Z,11.30
2022-09-07T21:06:26.514Z,11.30
2022-09-07T21:08:56.054Z,11.30
2022-09-07T21:11:31.903Z,11.20
2022-09-07T21:14:08.300Z,11.20
2022-09-07T21:16:36.324Z,11.20
2022-09-07T21:19:05.846Z,11.20
2022-09-07T21:21:39.220Z,11.10
2022-09-07T21:24:14.475Z,11.20
2022-09-07T21:26:41.510Z,11.20
2022-09-07T21:29:16.257Z,11.10
2022-09-07T21:31:43.219Z,11.20
2022-09-07T21:34:10.658Z,11.10
2022-09-07T21:36:37.548Z,11.10
2022-09-07T21:39:04.503Z,11.10
2022-09-07T21:41:31.657Z,11.00
2022-09-07T21:44:00.675Z,11.00
2022-09-07T21:46:29.642Z,11.00
2022-09-07T21:48:58.277Z,11.00
2022-09-07T21:51:26.062Z,10.90
2022-09-07T21:53:54.206Z,10.90
2022-09-07T21:56:21.973Z,10.90
2022-09-07T21:58:52.707Z,11.00
2022-09-07T22:01:19.915Z,10.90
2022-09-07T22:03:48.471Z,10.90
2022-09-07T22:06:15.506Z,10.90
2022-09-07T22:08:42.886Z,10.80
2022-09-07T22:11:12.728Z,10.80
2022-09-07T22:13:39.987Z,10.80
2022-09-07T22:16:07.724Z,10.80
2022-09-07T22:18:36.846Z,10.80
2022-09-07T22:21:06.462Z,10.70
2022-09-07T22:23:37.046Z,10.70
2022-09-07T22:26:04.933Z,10.70
2022-09-07T22:28:32.263Z,10.70
2022-09-07T22:31:26.825Z,10.60
2022-09-07T22:33:55.248Z,10.60
2022-09-07T22:36:27.949Z,10.60
2022-09-07T22:38:58.060Z,10.60
2022-09-07T22:41:33.316Z,10.60
2022-09-07T22:44:01.017Z,10.50
2022-09-07T22:46:30.409Z,10.50
2022-09-07T22:48:58.565Z,10.40
2022-09-07T22:51:26.811Z,10.40
2022-09-07T22:53:54.417Z,10.40
2022-09-07T22:56:24.237Z,10.40
2022-09-07T22:58:57.261Z,10.40
2022-09-07T23:01:25.231Z,10.50
2022-09-07T23:03:53.435Z,10.40
2022-09-07T23:06:22.560Z,10.40
2022-09-07T23:08:54.082Z,10.40
2022-09-07T23:11:22.648Z,10.40
2022-09-07T23:13:58.605Z,10.40
2022-09-07T23:16:27.941Z,10.30
2022-09-07T23:18:55.716Z,10.30
2022-09-07T23:21:22.681Z,10.30
2022-09-07T23:23:52.158Z,10.30
2022-09-07T23:26:20.448Z,10.30
2022-09-07T23:28:54.486Z,10.30
2022-09-07T23:31:22.225Z,10.20
2022-09-07T23:33:50.150Z,10.30
2022-09-07T23:36:18.416Z,10.30
2022-09-07T23:38:45.905Z,10.30
2022-09-07T23:41:17.847Z,10.40
2022-09-07T23:43:45.283Z,10.40
2022-09-07T23:46:13.817Z,10.50
2022-09-07T23:48:42.272Z,10.70
2022-09-07T23:51:09.184Z,10.90
2022-09-07T23:53:36.296Z,11.10
2022-09-07T23:56:03.934Z,11.20
2022-09-07T23:58:31.195Z,11.20
